MDT,Max TemperatureF,Mean TemperatureF,Min TemperatureF,Max Dew PointF,MeanDew PointF,Min DewpointF,Max Humidity, Mean Humidity, Min Humidity, Max Sea Level PressureIn, Mean Sea Level PressureIn, Min Sea Level PressureIn, Max VisibilityMiles, Mean VisibilityMiles, Min VisibilityMiles, Max Wind SpeedMPH, Mean Wind SpeedMPH, Max Gust SpeedMPH,PrecipitationIn, CloudCover, Events, WindDirDegrees
2013-7-1,94,76,58,44,39,31,51,32,12,30.05,29.96,29.89,10,10,10,22,7,26,0.00,0,,67
2013-7-2,93,77,61,44,38,33,43,29,14,30.01,29.92,29.84,10,10,10,21,6,28,0.00,0,,25
2013-7-3,94,75,55,52,41,33,56,35,13,30.16,29.93,29.79,10,10,10,29,6,41,0.01,1,Rain-Thunderstorm,76
2013-7-4,92,74,56,53,44,37,72,44,15,29.93,29.81,29.69,10,10,10,26,5,32,T,1,Rain,308
2013-7-5,93,77,61,55,50,43,67,44,20,30.01,29.76,29.62,10,10,9,29,6,37,0.03,3,Rain-Thunderstorm,294
2013-7-6,91,76,61,57,51,44,84,53,22,30.10,29.85,29.72,10,10,3,41,5,51,0.10,2,Rain-Thunderstorm,3
2013-7-7,93,75,56,55,49,41,86,52,18,30.18,29.93,29.76,10,10,9,33,5,40,0.02,2,Rain-Thunderstorm,326
2013-7-8,93,74,55,53,47,39,83,50,16,30.06,29.96,29.89,10,10,10,28,6,35,0.00,0,,308
2013-7-9,95,77,59,46,40,34,49,31,12,30.07,29.98,29.90,10,10,10,23,3,28,0.00,0,,18
2013-7-10,100,80,60,45,36,29,52,30,8,30.00,29.88,29.75,10,10,10,18,5,25,0.00,0,,261
2013-7-11,97,77,57,59,41,30,49,33,16,30.00,29.84,29.69,10,10,9,31,8,38,T,2,Rain-Thunderstorm,259
2013-7-12,92,77,62,61,55,49,78,51,23,30.16,29.92,29.78,10,10,5,30,10,37,0.11,2,Rain-Thunderstorm,117
2013-7-13,92,78,63,60,54,44,93,57,20,30.18,29.95,29.83,10,10,10,23,6,28,T,2,Rain,303
2013-7-14,92,77,62,59,53,46,90,57,24,30.18,30.00,29.88,10,10,9,26,5,33,0.10,3,Rain-Thunderstorm,111
2013-7-15,94,76,58,54,50,44,80,51,21,29.97,29.86,29.73,10,10,10,28,5,35,0.00,0,,108
2013-7-16,91,75,59,54,52,50,72,50,27,30.14,29.90,29.78,10,10,10,21,5,25,0.00,0,Thunderstorm,336
2013-7-17,91,78,65,59,54,49,68,46,24,30.24,30.01,29.90,10,10,5,23,6,32,0.08,1,Rain-Thunderstorm,318
2013-7-18,93,77,61,60,55,48,84,54,23,30.29,30.07,29.86,10,10,4,29,7,38,0.09,3,Rain-Thunderstorm,57
2013-7-19,95,78,60,59,50,43,90,54,17,30.12,29.95,29.77,10,10,10,21,8,26,0.00,0,Thunderstorm,352
2013-7-20,97,78,58,51,41,27,72,41,9,29.92,29.81,29.68,10,10,10,17,4,21,0.00,0,,29
2013-7-21,97,77,56,40,35,27,51,30,8,29.86,29.77,29.69,10,10,10,13,4,15,0.00,0,,19
2013-7-22,98,80,61,42,33,19,43,25,6,29.91,29.81,29.73,10,10,10,14,4,18,0.00,0,,72
2013-7-23,99,77,54,33,27,20,43,25,6,29.95,29.87,29.81,10,10,10,16,5,21,0.00,0,,85
2013-7-24,88,75,62,46,39,29,40,29,18,29.97,29.91,29.86,10,10,10,35,7,44,0.00,1,,177
2013-7-25,91,76,60,54,47,42,56,37,18,30.15,29.96,29.89,10,10,6,22,7,26,T,2,Thunderstorm,125
2013-7-26,95,76,56,49,41,32,72,42,12,30.12,30.01,29.88,10,10,10,18,4,26,0.00,0,,81
2013-7-27,92,76,60,55,45,35,59,40,20,30.08,29.93,29.77,10,10,10,25,7,31,T,2,Rain-Thunderstorm,307
2013-7-28,78,70,61,61,57,51,90,65,39,30.11,29.92,29.78,10,10,2,17,3,22,0.22,6,Rain,350
2013-7-29,85,72,58,56,51,44,84,55,25,30.15,29.99,29.90,10,10,10,26,9,37,0.01,3,Rain-Thunderstorm,262
2013-7-30,85,69,53,50,46,42,77,51,25,30.19,30.12,30.06,10,10,10,24,5,30,T,1,,19
2013-7-31,93,74,54,47,40,33,61,38,14,30.20,30.08,29.96,10,10,10,21,5,28,0.00,0,,184